createdAt,value
2019-02-09T00:00:48.286Z,28.27
2019-02-09T00:03:17.905Z,32.87
2019-02-09T00:05:47.482Z,28.87
2019-02-09T00:08:16.882Z,26.50
2019-02-09T00:10:46.411Z,30.13
2019-02-09T00:13:15.882Z,26.97
2019-02-09T00:15:46.798Z,27.77
2019-02-09T00:18:16.290Z,31.23
2019-02-09T00:20:45.850Z,26.47
2019-02-09T00:23:15.426Z,26.27
2019-02-09T00:25:44.982Z,25.20
2019-02-09T00:28:14.585Z,24.70
2019-02-09T00:30:44.120Z,27.53
2019-02-09T00:33:13.617Z,27.87
2019-02-09T00:35:43.093Z,25.03
2019-02-09T00:38:12.607Z,27.60
2019-02-09T00:40:42.078Z,27.50
2019-02-09T00:43:11.652Z,29.30
2019-02-09T00:46:00.532Z,28.30
2019-02-09T00:48:30.009Z,32.13
2019-02-09T00:50:59.626Z,28.60
2019-02-09T00:53:29.118Z,30.47
2019-02-09T00:55:58.594Z,27.60
2019-02-09T00:58:28.093Z,31.87
2019-02-09T01:00:57.616Z,31.73
2019-02-09T01:03:27.129Z,29.40
2019-02-09T01:05:56.729Z,37.00
2019-02-09T01:08:26.236Z,31.87
2019-02-09T01:10:55.697Z,31.63
2019-02-09T01:13:25.261Z,27.37
2019-02-09T01:15:54.812Z,30.93
2019-02-09T01:18:24.327Z,30.83
2019-02-09T01:20:53.858Z,28.20
2019-02-09T01:23:23.486Z,26.03
2019-02-09T01:25:52.965Z,33.10
2019-02-09T01:28:22.473Z,30.10
2019-02-09T01:30:52.049Z,27.43
2019-02-09T01:33:21.582Z,33.33
2019-02-09T01:35:51.100Z,27.53
2019-02-09T01:38:20.561Z,33.33
2019-02-09T01:40:50.066Z,30.10
2019-02-09T01:43:19.546Z,31.70
2019-02-09T01:45:49.023Z,31.50
2019-02-09T01:48:18.542Z,33.30
2019-02-09T01:50:48.018Z,26.20
2019-02-09T01:53:17.487Z,27.80
2019-02-09T01:55:46.999Z,27.33
2019-02-09T01:58:16.463Z,23.27
2019-02-09T02:00:45.937Z,26.73
2019-02-09T02:03:15.441Z,22.70
2019-02-09T02:05:45.026Z,32.43
2019-02-09T02:08:16.065Z,25.20
2019-02-09T02:10:45.553Z,34.50
2019-02-09T02:13:15.016Z,26.00
2019-02-09T02:15:44.553Z,28.83
2019-02-09T02:18:14.050Z,25.03
2019-02-09T02:20:43.532Z,32.20
2019-02-09T02:23:13.010Z,28.67
2019-02-09T02:25:42.506Z,29.73
2019-02-09T02:28:11.969Z,30.10
2019-02-09T02:30:41.464Z,23.50
2019-02-09T02:33:10.974Z,27.87
2019-02-09T02:35:40.546Z,26.70
2019-02-09T02:38:10.050Z,29.83
2019-02-09T02:40:39.656Z,24.17
2019-02-09T02:43:09.224Z,26.70
2019-02-09T02:45:38.710Z,30.27
2019-02-09T02:48:08.314Z,27.60
2019-02-09T02:50:37.879Z,28.60
2019-02-09T02:53:07.354Z,25.83
2019-02-09T02:55:36.867Z,25.60
2019-02-09T02:58:06.461Z,26.97
2019-02-09T03:00:37.507Z,30.23
2019-02-09T03:03:07.094Z,30.47
2019-02-09T03:05:36.592Z,26.43
2019-02-09T03:08:06.391Z,31.43
2019-02-09T03:10:36.037Z,21.77
2019-02-09T03:13:05.523Z,25.13
2019-02-09T03:15:36.226Z,27.33
2019-02-09T03:18:06.122Z,24.30
2019-02-09T03:20:35.660Z,23.47
2019-02-09T03:23:05.164Z,25.10
2019-02-09T03:25:36.040Z,25.63
2019-02-09T03:28:05.632Z,25.00
2019-02-09T03:30:46.957Z,24.23
2019-02-09T03:33:06.440Z,23.90
2019-02-09T03:35:35.935Z,22.50
2019-02-09T03:38:05.441Z,31.20
2019-02-09T03:40:34.935Z,30.00
2019-02-09T03:43:04.513Z,29.67
2019-02-09T03:45:35.007Z,27.40
2019-02-09T03:48:04.697Z,23.83
2019-02-09T03:50:34.767Z,23.90
2019-02-09T03:53:04.279Z,29.20
2019-02-09T03:55:33.746Z,27.77
2019-02-09T03:58:03.261Z,28.20
2019-02-09T04:00:33.409Z,35.20
2019-02-09T04:03:03.453Z,26.63
2019-02-09T04:05:32.930Z,25.07
2019-02-09T04:08:02.437Z,31.70
2019-02-09T04:10:31.916Z,26.10
2019-02-09T04:13:01.389Z,25.70
2019-02-09T04:15:30.886Z,28.00
2019-02-09T04:18:00.373Z,23.43
2019-02-09T04:20:29.757Z,27.80
2019-02-09T04:22:59.363Z,25.30
2019-02-09T04:25:28.878Z,27.67
2019-02-09T04:27:58.390Z,24.40
2019-02-09T04:30:34.918Z,24.20
2019-02-09T04:33:04.405Z,23.60
2019-02-09T04:35:33.877Z,25.23
2019-02-09T04:38:03.388Z,27.00
2019-02-09T04:40:33.567Z,25.23
2019-02-09T04:43:03.038Z,28.20
2019-02-09T04:45:32.528Z,24.87
2019-02-09T04:48:02.002Z,28.33
2019-02-09T04:50:31.490Z,25.43
2019-02-09T04:53:00.988Z,29.43
2019-02-09T04:55:30.460Z,27.80
2019-02-09T04:57:59.967Z,23.73
2019-02-09T05:00:33.334Z,24.57
2019-02-09T05:03:03.043Z,21.63
2019-02-09T05:05:51.904Z,26.83
2019-02-09T05:08:21.392Z,27.40
2019-02-09T05:10:50.863Z,30.67
2019-02-09T05:13:20.367Z,22.87
2019-02-09T05:15:49.853Z,35.57
2019-02-09T05:18:19.328Z,36.23
2019-02-09T05:20:48.826Z,28.70
2019-02-09T05:23:18.414Z,28.47
2019-02-09T05:25:47.863Z,26.87
2019-02-09T05:28:17.370Z,23.17
2019-02-09T05:30:46.895Z,22.27
2019-02-09T05:33:16.373Z,28.33
2019-02-09T05:35:45.903Z,28.60
2019-02-09T05:38:15.375Z,27.40
2019-02-09T05:41:04.236Z,26.80
2019-02-09T05:43:33.706Z,27.77
2019-02-09T05:46:03.189Z,28.00
2019-02-09T05:48:32.707Z,26.67
2019-02-09T05:51:02.181Z,31.27
2019-02-09T05:53:31.686Z,23.17
2019-02-09T05:56:01.197Z,27.27
2019-02-09T05:58:30.673Z,26.10
2019-02-09T06:01:00.146Z,22.80
2019-02-09T06:03:29.707Z,25.23
2019-02-09T06:05:59.198Z,26.20
2019-02-09T06:08:28.665Z,26.43
2019-02-09T06:10:58.162Z,26.97
2019-02-09T06:13:27.749Z,21.63
2019-02-09T06:15:57.209Z,23.30
2019-02-09T06:18:26.721Z,28.57
2019-02-09T06:20:56.195Z,25.40
2019-02-09T06:23:25.661Z,24.97
2019-02-09T06:25:55.177Z,31.93
2019-02-09T06:28:24.709Z,27.23
2019-02-09T06:30:54.185Z,28.67
2019-02-09T06:33:23.792Z,24.03
2019-02-09T06:35:53.263Z,25.20
2019-02-09T06:38:22.854Z,29.20
2019-02-09T06:40:52.360Z,27.50
2019-02-09T06:43:21.835Z,42.10
2019-02-09T06:45:51.339Z,45.20
2019-02-09T06:48:29.292Z,40.30
2019-02-09T06:50:59.265Z,52.93
2019-02-09T06:53:28.766Z,52.47
2019-02-09T06:55:58.268Z,50.03
2019-02-09T06:58:27.732Z,53.63
2019-02-09T07:00:57.218Z,53.40
2019-02-09T07:03:26.995Z,57.33
2019-02-09T07:05:56.481Z,54.60
2019-02-09T07:08:26.000Z,57.37
2019-02-09T07:10:55.660Z,52.90
2019-02-09T07:13:25.452Z,46.43
2019-02-09T07:15:55.268Z,48.90
2019-02-09T07:18:24.773Z,45.27
2019-02-09T07:20:54.456Z,44.93
2019-02-09T07:23:24.266Z,45.87
2019-02-09T07:25:54.129Z,45.90
2019-02-09T07:28:23.769Z,56.30
2019-02-09T07:30:53.638Z,46.67
2019-02-09T07:33:23.220Z,45.63
2019-02-09T07:35:52.697Z,47.37
2019-02-09T07:38:22.209Z,55.83
2019-02-09T07:40:51.674Z,41.80
2019-02-09T07:43:21.756Z,49.63
2019-02-09T07:45:51.250Z,45.47
2019-02-09T07:48:21.062Z,51.27
2019-02-09T07:50:50.611Z,42.63
2019-02-09T07:53:20.122Z,47.53
2019-02-09T07:55:49.609Z,39.33
2019-02-09T07:58:19.091Z,39.20
2019-02-09T08:00:48.881Z,44.73
2019-02-09T08:03:18.387Z,46.33
2019-02-09T08:05:47.847Z,44.10
2019-02-09T08:08:17.744Z,38.67
2019-02-09T08:10:47.253Z,37.23
2019-02-09T08:13:16.730Z,42.50
2019-02-09T08:15:46.357Z,31.80
2019-02-09T08:18:15.888Z,37.83
2019-02-09T08:20:45.672Z,34.70
2019-02-09T08:23:15.327Z,38.73
2019-02-09T08:25:44.779Z,33.20
2019-02-09T08:28:15.272Z,36.33
2019-02-09T08:30:50.852Z,35.67
2019-02-09T08:33:20.361Z,54.30
2019-02-09T08:35:49.829Z,55.87
2019-02-09T08:38:19.321Z,48.00
2019-02-09T08:40:48.802Z,62.40
2019-02-09T08:43:18.293Z,49.10
2019-02-09T08:45:47.900Z,54.70
2019-02-09T08:48:17.782Z,49.80
2019-02-09T08:51:01.059Z,48.23
2019-02-09T08:53:30.561Z,48.13
2019-02-09T08:56:00.152Z,43.70
2019-02-09T08:58:29.776Z,45.43
2019-02-09T09:00:59.663Z,45.97
2019-02-09T09:03:29.334Z,41.43
2019-02-09T09:05:59.181Z,41.10
2019-02-09T09:08:28.876Z,43.50
2019-02-09T09:10:58.339Z,41.23
2019-02-09T09:13:27.821Z,50.00
2019-02-09T09:16:00.259Z,42.63
2019-02-09T09:18:29.742Z,43.33
2019-02-09T09:21:04.393Z,42.97
2019-02-09T09:23:34.073Z,40.40
2019-02-09T09:26:03.650Z,43.10
2019-02-09T09:28:33.135Z,39.63
2019-02-09T09:31:02.637Z,42.97
2019-02-09T09:33:32.271Z,39.20
2019-02-09T09:36:01.787Z,38.97
2019-02-09T09:38:31.296Z,34.70
2019-02-09T09:41:02.657Z,38.50
2019-02-09T09:43:33.892Z,36.40
2019-02-09T09:46:03.367Z,37.67
2019-02-09T09:48:33.077Z,40.13
2019-02-09T09:51:02.788Z,37.93
2019-02-09T09:53:32.411Z,38.87
2019-02-09T09:56:01.940Z,38.70
2019-02-09T09:58:31.403Z,39.27
2019-02-09T10:01:00.908Z,48.20
2019-02-09T10:03:30.310Z,41.80
2019-02-09T10:05:59.768Z,40.90
2019-02-09T10:08:29.264Z,37.50
2019-02-09T10:10:58.731Z,46.00
2019-02-09T10:13:28.228Z,39.20
2019-02-09T10:15:57.641Z,40.53
2019-02-09T10:18:27.112Z,41.03
2019-02-09T10:20:56.591Z,35.50
2019-02-09T10:23:26.084Z,35.83
2019-02-09T10:25:55.565Z,37.30
2019-02-09T10:28:25.034Z,37.77
2019-02-09T10:30:54.554Z,31.87
2019-02-09T10:33:24.011Z,32.87
2019-02-09T10:35:53.680Z,38.17
2019-02-09T10:38:23.312Z,33.30
2019-02-09T10:40:52.789Z,33.37
2019-02-09T10:43:22.500Z,35.23
2019-02-09T10:45:52.032Z,29.87
2019-02-09T10:48:21.511Z,34.27
2019-02-09T10:50:50.993Z,32.67
2019-02-09T10:53:20.566Z,33.13
2019-02-09T10:55:50.048Z,32.20
2019-02-09T10:58:19.542Z,30.00
2019-02-09T11:00:52.935Z,30.53
2019-02-09T11:03:22.549Z,29.47
2019-02-09T11:05:52.233Z,28.43
2019-02-09T11:08:21.993Z,28.30
2019-02-09T11:10:51.535Z,26.33
2019-02-09T11:13:21.071Z,26.33
2019-02-09T11:15:50.560Z,25.57
2019-02-09T11:18:20.043Z,26.50
2019-02-09T11:20:49.563Z,27.53
2019-02-09T11:23:19.025Z,23.70
2019-02-09T11:25:48.504Z,20.67
2019-02-09T11:28:18.038Z,18.87
2019-02-09T11:30:47.519Z,21.53
2019-02-09T11:33:17.014Z,22.50
2019-02-09T11:35:46.648Z,23.20
2019-02-09T11:38:16.133Z,24.10
2019-02-09T11:40:45.819Z,24.97
2019-02-09T11:43:15.378Z,23.27
2019-02-09T11:45:44.930Z,21.60
2019-02-09T11:48:14.514Z,22.00
2019-02-09T11:50:44.134Z,24.10
2019-02-09T11:53:13.652Z,23.30
2019-02-09T11:55:43.155Z,22.73
2019-02-09T11:58:12.897Z,22.23
2019-02-09T12:00:47.057Z,21.80
2019-02-09T12:03:16.588Z,22.50
2019-02-09T12:05:46.123Z,20.63
2019-02-09T12:08:15.603Z,20.77
2019-02-09T12:10:45.125Z,21.10
2019-02-09T12:13:14.612Z,21.20
2019-02-09T12:15:44.086Z,21.17
2019-02-09T12:18:16.052Z,21.57
2019-02-09T12:20:45.877Z,21.50
2019-02-09T12:23:15.357Z,19.47
2019-02-09T12:25:44.860Z,23.63
2019-02-09T12:28:14.749Z,20.60
2019-02-09T12:30:44.286Z,20.30
2019-02-09T12:33:22.552Z,20.63
2019-02-09T12:35:45.713Z,22.03
2019-02-09T12:38:15.698Z,21.10
2019-02-09T12:40:45.292Z,22.27
2019-02-09T12:43:14.871Z,22.80
2019-02-09T12:45:44.377Z,21.30
2019-02-09T12:48:13.871Z,21.27
2019-02-09T12:50:43.346Z,21.00
2019-02-09T12:53:12.979Z,20.80
2019-02-09T12:55:42.486Z,18.50
2019-02-09T12:58:11.968Z,20.20
2019-02-09T13:00:41.455Z,20.70
2019-02-09T13:03:21.091Z,19.23
2019-02-09T13:05:50.566Z,18.83
2019-02-09T13:08:20.043Z,20.77
2019-02-09T13:10:49.545Z,18.20
2019-02-09T13:13:19.055Z,18.47
2019-02-09T13:15:48.559Z,19.93
2019-02-09T13:18:18.067Z,17.47
2019-02-09T13:20:47.540Z,19.60
2019-02-09T13:23:17.041Z,18.70
2019-02-09T13:25:46.804Z,17.40
2019-02-09T13:28:16.332Z,16.70
2019-02-09T13:30:45.810Z,17.50
2019-02-09T13:33:15.326Z,16.17
2019-02-09T13:35:44.910Z,17.30
2019-02-09T13:38:14.461Z,17.20
2019-02-09T13:40:43.930Z,16.70
2019-02-09T13:43:13.421Z,16.50
2019-02-09T13:45:51.336Z,16.80
2019-02-09T13:48:20.837Z,15.77
2019-02-09T13:50:50.355Z,17.80
2019-02-09T13:53:20.882Z,14.80
2019-02-09T13:55:50.375Z,23.97
2019-02-09T13:58:19.845Z,14.33
2019-02-09T14:00:49.382Z,15.73
2019-02-09T14:03:18.844Z,14.63
2019-02-09T14:05:48.332Z,14.73
2019-02-09T14:08:17.896Z,15.23
2019-02-09T14:10:47.389Z,15.63
2019-02-09T14:13:16.873Z,14.00
2019-02-09T14:15:46.388Z,14.30
2019-02-09T14:18:15.859Z,12.43
2019-02-09T14:20:45.367Z,12.00
2019-02-09T14:23:14.867Z,12.30
2019-02-09T14:25:44.404Z,11.33
2019-02-09T14:28:13.994Z,11.53
2019-02-09T14:30:43.474Z,11.83
2019-02-09T14:33:13.391Z,10.83
2019-02-09T14:35:43.601Z,12.87
2019-02-09T14:38:13.131Z,12.47
2019-02-09T14:40:42.634Z,11.90
2019-02-09T14:43:12.209Z,13.20
2019-02-09T14:45:44.315Z,13.73
2019-02-09T14:48:13.982Z,14.33
2019-02-09T14:50:43.476Z,14.03
2019-02-09T14:53:12.982Z,14.70
2019-02-09T14:55:42.456Z,12.87
2019-02-09T14:58:11.960Z,13.87
2019-02-09T15:00:53.922Z,11.63
2019-02-09T15:03:28.159Z,11.93
2019-02-09T15:05:54.531Z,12.57
2019-02-09T15:08:24.054Z,13.17
2019-02-09T15:10:53.525Z,13.57
2019-02-09T15:13:23.022Z,15.83
2019-02-09T15:16:09.182Z,17.90
2019-02-09T15:18:38.666Z,15.70
2019-02-09T15:21:12.228Z,16.73
2019-02-09T15:23:41.837Z,14.80
2019-02-09T15:26:12.717Z,17.17
2019-02-09T15:28:43.025Z,27.47
2019-02-09T15:31:12.758Z,18.80
2019-02-09T15:33:42.354Z,17.80
2019-02-09T15:36:11.858Z,18.43
2019-02-09T15:38:41.366Z,22.90
2019-02-09T15:41:10.848Z,21.17
2019-02-09T15:43:40.420Z,20.30
2019-02-09T15:46:10.089Z,21.00
2019-02-09T15:48:39.909Z,22.93
2019-02-09T15:51:09.373Z,18.80
2019-02-09T15:53:38.874Z,20.27
2019-02-09T15:56:08.382Z,17.77
2019-02-09T15:58:37.925Z,17.50
2019-02-09T16:01:07.443Z,19.30
2019-02-09T16:03:36.935Z,21.40
2019-02-09T16:06:06.422Z,19.70
2019-02-09T16:08:36.033Z,20.93
2019-02-09T16:11:05.702Z,21.57
2019-02-09T16:13:35.163Z,23.93
2019-02-09T16:16:06.821Z,22.50
2019-02-09T16:18:36.286Z,23.53
2019-02-09T16:21:05.789Z,24.10
2019-02-09T16:23:35.634Z,23.60
2019-02-09T16:26:05.626Z,23.67
2019-02-09T16:28:35.106Z,30.07
2019-02-09T16:31:04.634Z,28.87
2019-02-09T16:33:34.129Z,24.03
2019-02-09T16:36:04.386Z,28.43
2019-02-09T16:38:33.961Z,27.07
2019-02-09T16:41:03.979Z,25.80
2019-02-09T16:43:33.477Z,29.13
2019-02-09T16:46:02.975Z,30.07
2019-02-09T16:48:32.716Z,34.53
2019-02-09T16:51:02.219Z,33.13
2019-02-09T16:53:31.730Z,25.80
2019-02-09T16:56:01.214Z,22.10
2019-02-09T16:58:30.766Z,22.27
2019-02-09T17:01:00.278Z,23.87
2019-02-09T17:03:30.016Z,25.40
2019-02-09T17:05:59.489Z,21.90
2019-02-09T17:08:28.959Z,26.17
2019-02-09T17:10:58.448Z,21.30
2019-02-09T17:13:27.926Z,24.57
2019-02-09T17:15:57.396Z,22.30
2019-02-09T17:18:26.910Z,21.90
2019-02-09T17:20:56.384Z,26.83
2019-02-09T17:23:25.860Z,23.07
2019-02-09T17:25:55.359Z,27.00
2019-02-09T17:28:24.951Z,34.50
2019-02-09T17:30:54.681Z,26.57
2019-02-09T17:33:24.291Z,19.03
2019-02-09T17:35:53.772Z,20.07
2019-02-09T17:38:23.330Z,24.13
2019-02-09T17:40:52.884Z,25.83
2019-02-09T17:43:22.353Z,25.70
2019-02-09T17:46:11.400Z,28.77
2019-02-09T17:48:40.911Z,33.83
2019-02-09T17:51:10.401Z,33.23
2019-02-09T17:53:39.912Z,34.13
2019-02-09T17:56:09.778Z,22.67
2019-02-09T17:58:39.248Z,23.17
2019-02-09T18:01:10.354Z,23.47
2019-02-09T18:03:39.866Z,25.40
2019-02-09T18:06:09.460Z,24.80
2019-02-09T18:08:38.951Z,30.13
2019-02-09T18:11:08.450Z,30.27
2019-02-09T18:13:37.974Z,34.63
2019-02-09T18:16:07.481Z,26.93
2019-02-09T18:18:36.986Z,25.33
2019-02-09T18:21:06.987Z,28.20
2019-02-09T18:23:37.211Z,29.13
2019-02-09T18:26:06.747Z,33.23
2019-02-09T18:28:36.237Z,31.80
2019-02-09T18:31:05.871Z,33.30
2019-02-09T18:33:35.598Z,28.60
2019-02-09T18:36:05.285Z,28.93
2019-02-09T18:38:34.930Z,37.07
2019-02-09T18:41:04.684Z,50.77
2019-02-09T18:43:34.212Z,50.60
2019-02-09T18:46:03.756Z,33.33
2019-02-09T18:48:33.239Z,36.53
2019-02-09T18:51:02.812Z,33.63
2019-02-09T18:53:32.451Z,31.33
2019-02-09T18:56:02.007Z,29.60
2019-02-09T18:58:31.629Z,28.87
2019-02-09T19:01:01.094Z,32.40
2019-02-09T19:03:30.583Z,29.40
2019-02-09T19:06:00.047Z,31.23
2019-02-09T19:08:29.531Z,28.40
2019-02-09T19:10:59.040Z,37.10
2019-02-09T19:13:28.508Z,32.10
2019-02-09T19:15:58.174Z,30.33
2019-02-09T19:18:29.813Z,28.93
2019-02-09T19:21:00.634Z,28.83
2019-02-09T19:23:30.381Z,29.40
2019-02-09T19:26:00.711Z,32.43
2019-02-09T19:28:32.320Z,26.07
2019-02-09T19:31:01.850Z,26.53
2019-02-09T19:33:33.214Z,33.50
2019-02-09T19:36:02.678Z,30.53
2019-02-09T19:38:32.465Z,33.43
2019-02-09T19:41:02.029Z,35.13
2019-02-09T19:43:31.518Z,35.43
2019-02-09T19:46:01.030Z,36.83
2019-02-09T19:48:30.565Z,31.97
2019-02-09T19:51:01.299Z,34.83
2019-02-09T19:53:31.895Z,36.20
2019-02-09T19:56:02.824Z,45.63
2019-02-09T19:58:34.288Z,36.80
2019-02-09T20:01:03.791Z,48.83
2019-02-09T20:03:34.280Z,53.00
2019-02-09T20:06:04.022Z,38.93
2019-02-09T20:08:33.450Z,34.93
2019-02-09T20:11:03.962Z,40.13
2019-02-09T20:13:35.012Z,36.00
2019-02-09T20:16:04.542Z,33.97
2019-02-09T20:18:38.285Z,39.13
2019-02-09T20:21:07.941Z,38.60
2019-02-09T20:23:37.432Z,35.87
2019-02-09T20:26:06.924Z,34.90
2019-02-09T20:28:36.392Z,38.63
2019-02-09T20:31:05.895Z,43.80
2019-02-09T20:33:37.576Z,34.57
2019-02-09T20:36:08.089Z,45.67
2019-02-09T20:38:38.974Z,40.77
2019-02-09T20:41:09.576Z,38.43
2019-02-09T20:44:00.719Z,36.20
2019-02-09T20:46:30.490Z,38.60
2019-02-09T20:49:00.587Z,37.37
2019-02-09T20:51:31.435Z,39.13
2019-02-09T20:54:00.976Z,40.20
2019-02-09T20:56:32.268Z,32.60
2019-02-09T20:59:03.273Z,39.77
2019-02-09T21:01:32.816Z,52.03
2019-02-09T21:04:02.310Z,49.60
2019-02-09T21:06:32.862Z,44.80
2019-02-09T21:09:02.368Z,42.07
2019-02-09T21:11:32.056Z,35.27
2019-02-09T21:14:02.872Z,31.07
2019-02-09T21:16:33.178Z,39.27
2019-02-09T21:19:02.683Z,39.73
2019-02-09T21:21:32.211Z,36.93
2019-02-09T21:24:01.700Z,43.20
2019-02-09T21:26:31.185Z,42.03
2019-02-09T21:29:00.675Z,43.53
2019-02-09T21:31:30.152Z,43.10
2019-02-09T21:33:59.659Z,43.00
2019-02-09T21:36:29.167Z,39.80
2019-02-09T21:38:58.662Z,42.43
2019-02-09T21:41:28.136Z,42.13
2019-02-09T21:43:57.636Z,47.80
2019-02-09T21:46:27.094Z,48.50
2019-02-09T21:48:56.592Z,41.80
2019-02-09T21:51:26.194Z,34.67
2019-02-09T21:53:55.685Z,38.30
2019-02-09T21:56:25.161Z,35.87
2019-02-09T21:58:54.646Z,34.73
2019-02-09T22:01:24.154Z,31.90
2019-02-09T22:03:53.619Z,31.17
2019-02-09T22:06:23.138Z,38.83
2019-02-09T22:08:52.662Z,32.17
2019-02-09T22:11:23.508Z,32.80
2019-02-09T22:13:53.214Z,36.13
2019-02-09T22:16:22.772Z,33.70
2019-02-09T22:18:52.426Z,29.23
2019-02-09T22:21:22.074Z,32.47
2019-02-09T22:23:51.642Z,30.97
2019-02-09T22:26:22.051Z,28.57
2019-02-09T22:28:51.705Z,35.47
2019-02-09T22:31:22.101Z,30.70
2019-02-09T22:33:51.763Z,38.07
2019-02-09T22:36:21.252Z,35.47
2019-02-09T22:38:50.754Z,32.37
2019-02-09T22:41:20.222Z,34.13
2019-02-09T22:43:49.707Z,35.90
2019-02-09T22:46:19.215Z,39.33
2019-02-09T22:48:48.718Z,36.07
2019-02-09T22:51:18.321Z,33.90
2019-02-09T22:53:47.828Z,34.50
2019-02-09T22:56:17.322Z,41.83
2019-02-09T22:58:46.800Z,32.83
2019-02-09T23:01:38.060Z,41.63
2019-02-09T23:04:14.973Z,41.57
2019-02-09T23:06:58.934Z,37.43
2019-02-09T23:09:28.424Z,45.60
2019-02-09T23:11:57.887Z,49.77
2019-02-09T23:14:27.381Z,41.23
2019-02-09T23:16:56.932Z,46.00
2019-02-09T23:19:26.507Z,33.80
2019-02-09T23:21:56.010Z,39.87
2019-02-09T23:24:25.575Z,37.57
2019-02-09T23:26:55.042Z,52.23
2019-02-09T23:29:24.633Z,37.67
2019-02-09T23:31:54.124Z,27.03
2019-02-09T23:34:23.592Z,32.23
2019-02-09T23:36:53.085Z,30.47
2019-02-09T23:39:22.569Z,30.43
2019-02-09T23:41:52.138Z,31.23
2019-02-09T23:44:21.647Z,26.70
2019-02-09T23:46:51.124Z,28.37
2019-02-09T23:49:20.629Z,30.83
2019-02-09T23:51:50.108Z,30.10
2019-02-09T23:54:19.563Z,27.17
2019-02-09T23:56:49.061Z,23.90
2019-02-09T23:59:18.550Z,26.87
